Time;durP1;ratioP1;P1;durP2;ratioP2;P2;SDS_P1;SDS_P2;PMS_P1;PMS_P2;Temp;Humidity;BMP_temperature;BMP_pressure;BME280_temperature;BME280_humidity;BME280_pressure;Samples;Min_cycle;Max_cycle;Signal;HPM_P1;HPM_P2
2023/10/04 00:01:14;;;;;;;8.00;2.95;;;16.70;99.90;;;;;;6122701;23;20014;-70
2023/10/04 00:03:40;;;;;;;10.82;2.22;;;16.90;99.90;;;;;;6097295;23;20021;-70
2023/10/04 00:06:05;;;;;;;8.13;2.60;;;17.00;99.90;;;;;;6096974;23;20018;-70
2023/10/04 00:08:31;;;;;;;12.93;2.83;;;17.20;99.90;;;;;;6095644;23;20021;-69
2023/10/04 00:10:57;;;;;;;10.65;2.88;;;16.60;99.90;;;;;;6095799;23;20464;-69
2023/10/04 00:13:23;;;;;;;6.78;2.13;;;16.70;99.90;;;;;;6095926;23;20010;-69
2023/10/04 00:15:48;;;;;;;11.00;2.53;;;17.10;99.90;;;;;;6123478;23;20013;-69
2023/10/04 00:18:15;;;;;;;10.68;2.50;;;16.70;99.90;;;;;;6095831;23;20460;-69
2023/10/04 00:20:40;;;;;;;10.63;2.30;;;16.90;99.90;;;;;;6122181;23;20022;-69
2023/10/04 00:23:06;;;;;;;8.40;2.58;;;16.90;99.90;;;;;;6095811;23;20467;-70
2023/10/04 00:25:35;;;;;;;10.40;1.90;;;16.70;99.90;;;;;;6096596;23;20010;-69
2023/10/04 00:28:02;;;;;;;9.75;2.33;;;17.00;99.90;;;;;;6071483;23;20025;-69
2023/10/04 00:30:29;;;;;;;10.05;2.30;;;16.90;99.90;;;;;;6094802;23;20102;-69
2023/10/04 00:32:56;;;;;;;9.00;2.40;;;17.00;99.90;;;;;;6083808;23;20014;-70
2023/10/04 00:35:23;;;;;;;7.38;2.60;;;17.30;99.90;;;;;;6120538;23;20511;-71
2023/10/04 00:37:56;;;;;;;9.65;2.10;;;16.70;99.90;;;;;;6097245;23;20018;-69
2023/10/04 00:40:32;;;;;;;11.98;2.92;;;16.60;99.90;;;;;;6119931;23;20018;-70
2023/10/04 00:43:01;;;;;;;6.88;2.28;;;17.10;99.90;;;;;;6123210;23;20021;-70
2023/10/04 00:45:28;;;;;;;8.10;2.78;;;16.90;99.90;;;;;;6120996;23;20525;-69
2023/10/04 00:47:58;;;;;;;9.98;2.55;;;16.80;99.90;;;;;;6120222;23;20010;-70
2023/10/04 00:50:26;;;;;;;11.50;2.83;;;16.60;99.90;;;;;;6121842;23;20018;-69
2023/10/04 00:53:09;;;;;;;12.40;2.55;;;17.40;99.90;;;;;;6121139;23;20763;-69
2023/10/04 00:55:40;;;;;;;11.60;2.55;;;17.10;99.90;;;;;;6120722;23;20092;-70
2023/10/04 00:58:07;;;;;;;11.95;2.42;;;16.70;99.90;;;;;;6096940;23;20056;-69
2023/10/04 01:00:33;;;;;;;10.60;2.38;;;17.30;99.90;;;;;;6121163;23;20018;-70
2023/10/04 01:02:59;;;;;;;10.80;2.72;;;17.00;99.90;;;;;;6122605;23;20329;-70
2023/10/04 01:05:26;;;;;;;12.02;2.92;;;17.40;99.90;;;;;;6096140;23;20072;-70
2023/10/04 01:07:57;;;;;;;9.18;3.03;;;16.30;99.90;;;;;;6121476;23;20014;-70
2023/10/04 01:10:33;;;;;;;9.88;2.30;;;17.20;99.90;;;;;;6119248;23;20028;-70
2023/10/04 01:13:00;;;;;;;9.80;2.53;;;17.00;99.90;;;;;;6120820;23;20092;-70
2023/10/04 01:15:30;;;;;;;7.63;2.53;;;17.00;99.90;;;;;;6119953;23;20018;-70
2023/10/04 01:18:07;;;;;;;11.93;2.88;;;17.50;99.90;;;;;;6120645;23;20108;-70
2023/10/04 01:20:33;;;;;;;11.48;2.83;;;17.30;99.90;;;;;;6094184;23;20454;-70
2023/10/04 01:23:06;;;;;;;8.13;2.55;;;16.90;99.90;;;;;;6121562;23;20014;-70
2023/10/04 01:25:33;;;;;;;11.13;2.42;;;16.70;99.90;;;;;;6119624;23;20039;-70
2023/10/04 01:28:00;;;;;;;12.27;2.28;;;17.10;99.90;;;;;;6118443;23;20407;-70
2023/10/04 01:30:27;;;;;;;8.43;2.42;;;16.90;99.90;;;;;;6093371;23;20091;-70
2023/10/04 01:32:54;;;;;;;10.40;2.58;;;17.20;99.90;;;;;;6120752;23;20092;-70
2023/10/04 01:35:23;;;;;;;13.15;3.00;;;16.90;99.90;;;;;;6121092;23;20016;-70
2023/10/04 01:37:52;;;;;;;11.65;2.72;;;17.10;99.90;;;;;;6121098;23;20301;-70
2023/10/04 01:40:19;;;;;;;11.15;2.90;;;17.20;99.90;;;;;;6120387;23;20025;-70
2023/10/04 01:42:45;;;;;;;9.63;2.42;;;16.40;99.90;;;;;;6120843;23;20069;-70
2023/10/04 01:45:18;;;;;;;10.88;3.00;;;16.80;99.90;;;;;;6096232;23;20018;-70
2023/10/04 01:47:44;;;;;;;10.73;2.60;;;17.00;99.90;;;;;;6120390;23;20356;-70
2023/10/04 01:50:10;;;;;;;8.85;2.40;;;17.10;99.90;;;;;;6119216;23;20018;-70
2023/10/04 01:52:38;;;;;;;11.90;2.53;;;17.00;99.90;;;;;;6118863;23;20463;-70
2023/10/04 01:55:10;;;;;;;10.43;2.20;;;;;;;;;;6119822;23;20024;-70
2023/10/04 01:57:41;;;;;;;8.30;2.55;;;16.70;99.90;;;;;;6095902;23;20029;-70
2023/10/04 02:00:10;;;;;;;11.57;2.55;;;17.10;99.90;;;;;;6118985;23;20018;-70
2023/10/04 02:02:39;;;;;;;11.77;2.83;;;16.90;99.90;;;;;;6119168;23;20482;-70
2023/10/04 02:05:15;;;;;;;10.07;2.20;;;16.80;99.90;;;;;;6119746;23;20456;-70
2023/10/04 02:07:41;;;;;;;9.63;2.50;;;17.10;99.90;;;;;;6119618;23;20018;-70
2023/10/04 02:10:09;;;;;;;11.13;2.63;;;17.30;99.90;;;;;;6119291;23;20017;-70
2023/10/04 02:12:38;;;;;;;8.88;2.10;;;17.00;99.90;;;;;;6094439;23;20013;-70
2023/10/04 02:15:06;;;;;;;11.35;2.45;;;16.60;99.90;;;;;;6119414;23;20025;-70
2023/10/04 02:17:32;;;;;;;13.27;2.85;;;16.20;99.90;;;;;;6093224;23;20050;-70
2023/10/04 02:19:58;;;;;;;9.10;2.20;;;16.80;99.90;;;;;;6117048;23;20018;-70
2023/10/04 02:22:24;;;;;;;11.80;3.28;;;16.90;99.90;;;;;;6119023;23;20009;-70
2023/10/04 02:24:50;;;;;;;8.73;2.33;;;17.00;99.90;;;;;;6120075;23;20009;-70
2023/10/04 02:27:17;;;;;;;9.95;2.60;;;17.00;99.90;;;;;;6095296;23;20788;-70
2023/10/04 02:29:44;;;;;;;14.40;2.55;;;16.40;99.90;;;;;;6120670;23;20006;-70
2023/10/04 02:32:10;;;;;;;8.80;2.75;;;16.60;99.90;;;;;;6121510;23;20014;-70
2023/10/04 02:34:38;;;;;;;9.52;2.50;;;16.20;99.90;;;;;;6094319;23;20032;-68
2023/10/04 02:37:07;;;;;;;12.05;3.03;;;17.10;99.90;;;;;;6095656;23;20014;-68
2023/10/04 02:39:36;;;;;;;9.48;2.75;;;16.70;99.90;;;;;;6121157;23;20010;-69
2023/10/04 02:42:09;;;;;;;8.43;3.58;;;16.70;99.90;;;;;;6095022;23;20456;-69
2023/10/04 02:44:37;;;;;;;9.75;2.72;;;17.30;99.90;;;;;;6095841;23;20017;-69
2023/10/04 02:47:07;;;;;;;10.05;2.50;;;16.80;99.90;;;;;;6095894;23;20021;-69
2023/10/04 02:49:39;;;;;;;9.88;2.75;;;16.40;99.90;;;;;;6094456;23;20614;-70
2023/10/04 02:52:11;;;;;;;10.48;2.47;;;17.00;99.90;;;;;;6121560;23;20014;-70
2023/10/04 02:54:38;;;;;;;14.93;2.60;;;16.00;99.90;;;;;;6095499;23;20081;-70
2023/10/04 02:57:08;;;;;;;16.70;2.97;;;16.80;99.90;;;;;;6095102;23;20096;-70
2023/10/04 02:59:38;;;;;;;9.45;2.47;;;17.00;99.90;;;;;;6095014;23;20014;-70
2023/10/04 03:02:03;;;;;;;8.27;2.55;;;17.20;99.90;;;;;;6096100;23;20016;-70
2023/10/04 03:04:29;;;;;;;7.43;2.10;;;16.90;99.90;;;;;;6096886;23;20006;-70
2023/10/04 03:06:56;;;;;;;11.90;2.40;;;16.40;99.90;;;;;;6122913;23;20018;-69
2023/10/04 03:09:24;;;;;;;10.13;2.38;;;16.80;99.90;;;;;;6093913;23;20017;-70
2023/10/04 03:11:50;;;;;;;10.10;3.00;;;16.90;99.90;;;;;;6096677;23;20075;-70
2023/10/04 03:14:16;;;;;;;9.57;2.70;;;16.60;99.90;;;;;;6123130;23;20089;-70
2023/10/04 03:16:42;;;;;;;10.15;2.80;;;16.50;99.90;;;;;;6098083;23;20080;-70
2023/10/04 03:19:11;;;;;;;8.88;2.63;;;17.00;99.90;;;;;;6096190;23;20519;-70
2023/10/04 03:21:44;;;;;;;12.32;2.70;;;16.90;99.90;;;;;;6122516;23;20018;-69
2023/10/04 03:24:10;;;;;;;11.88;2.83;;;16.60;99.90;;;;;;6123624;23;20056;-69
2023/10/04 03:26:37;;;;;;;12.30;2.95;;;17.10;99.90;;;;;;6097070;23;20014;-70
2023/10/04 03:29:04;;;;;;;8.70;2.70;;;16.90;99.90;;;;;;6097452;23;20078;-70
2023/10/04 03:31:30;;;;;;;9.98;2.78;;;16.90;99.90;;;;;;6122986;23;20080;-69
2023/10/04 03:33:56;;;;;;;8.45;2.55;;;16.90;99.90;;;;;;6120869;23;20068;-69
2023/10/04 03:36:22;;;;;;;8.85;2.70;;;16.00;99.90;;;;;;6121685;23;20088;-69
2023/10/04 03:38:49;;;;;;;8.70;2.85;;;16.90;99.90;;;;;;6121338;23;20263;-70
2023/10/04 03:41:16;;;;;;;8.68;2.28;;;16.30;99.90;;;;;;6121681;23;20021;-69
2023/10/04 03:43:42;;;;;;;8.07;2.60;;;17.00;99.90;;;;;;6121990;23;20018;-69
2023/10/04 03:46:20;;;;;;;9.77;2.78;;;16.50;99.90;;;;;;6097965;23;20048;-70
2023/10/04 03:48:48;;;;;;;8.25;2.40;;;16.70;99.90;;;;;;6121493;23;20061;-70
2023/10/04 03:51:15;;;;;;;10.52;2.70;;;16.80;99.90;;;;;;6121912;23;20025;-69
2023/10/04 03:53:43;;;;;;;11.63;2.50;;;16.10;99.90;;;;;;6122019;23;20362;-69
2023/10/04 03:56:14;;;;;;;8.70;2.50;;;16.70;99.90;;;;;;6121901;23;20021;-69
2023/10/04 03:58:40;;;;;;;12.13;2.70;;;16.30;99.90;;;;;;6120837;23;20499;-69
2023/10/04 04:01:07;;;;;;;8.35;2.70;;;16.70;99.90;;;;;;6121719;23;20022;-69
2023/10/04 04:03:33;;;;;;;8.43;2.25;;;16.20;99.90;;;;;;6119505;23;20495;-69
2023/10/04 04:06:00;;;;;;;9.30;2.35;;;16.60;99.90;;;;;;6121467;23;20424;-69
2023/10/04 04:08:26;;;;;;;8.50;2.35;;;17.00;99.90;;;;;;6119133;23;20049;-69
2023/10/04 04:10:53;;;;;;;9.75;2.70;;;17.20;99.90;;;;;;6119519;23;20392;-69
2023/10/04 04:13:19;;;;;;;8.27;2.50;;;17.00;99.90;;;;;;6096135;23;20025;-68
2023/10/04 04:15:45;;;;;;;10.18;2.90;;;16.70;99.90;;;;;;6119845;23;20014;-68
2023/10/04 04:18:19;;;;;;;8.85;2.58;;;16.40;99.90;;;;;;6120507;23;20018;-68
2023/10/04 04:20:46;;;;;;;11.52;2.80;;;16.60;99.90;;;;;;6120741;23;20477;-68
2023/10/04 04:23:15;;;;;;;8.05;2.60;;;16.80;99.90;;;;;;6123448;23;20014;-68
2023/10/04 04:25:43;;;;;;;10.93;2.70;;;16.00;99.90;;;;;;6096639;23;20018;-68
2023/10/04 04:28:13;;;;;;;10.88;3.72;;;16.20;99.90;;;;;;6121527;23;20049;-68
2023/10/04 04:30:39;;;;;;;8.40;2.53;;;16.90;99.90;;;;;;6120217;23;20036;-67
2023/10/04 04:33:07;;;;;;;10.20;2.80;;;17.00;99.90;;;;;;6119965;23;20092;-68
2023/10/04 04:38:13;;;;;;;10.75;3.38;;;16.50;99.90;;;;;;6123341;23;20097;-68
2023/10/04 04:40:44;;;;;;;13.82;3.88;;;17.20;99.90;;;;;;6121999;23;20017;-68
2023/10/04 04:45:51;;;;;;;13.75;3.30;;;16.50;99.90;;;;;;6120917;23;20017;-69
2023/10/04 04:48:29;;;;;;;12.88;3.45;;;15.90;99.90;;;;;;6096122;23;20638;-69
2023/10/04 04:51:04;;;;;;;13.93;3.28;;;17.00;99.90;;;;;;6120319;23;20439;-69
2023/10/04 04:53:33;;;;;;;14.18;4.82;;;17.00;99.90;;;;;;6121405;23;20018;-70
2023/10/04 04:56:00;;;;;;;11.00;3.85;;;16.30;99.90;;;;;;6120849;23;20022;-69
2023/10/04 04:58:28;;;;;;;14.63;3.67;;;17.00;99.90;;;;;;6121160;23;20021;-69
2023/10/04 05:01:02;;;;;;;18.30;4.32;;;16.10;99.90;;;;;;6095935;23;20483;-69
2023/10/04 05:03:28;;;;;;;9.10;3.10;;;16.60;99.90;;;;;;6120389;23;20089;-69
2023/10/04 05:06:00;;;;;;;13.95;3.88;;;16.50;99.90;;;;;;6120350;23;20104;-69
2023/10/04 05:08:26;;;;;;;11.13;3.85;;;16.60;99.90;;;;;;6118500;23;20364;-69
2023/10/04 05:10:57;;;;;;;11.65;3.50;;;16.70;99.90;;;;;;6120109;23;20048;-69
2023/10/04 05:13:22;;;;;;;11.98;3.47;;;16.70;99.90;;;;;;6120785;23;20018;-70
2023/10/04 05:15:49;;;;;;;14.68;3.85;;;16.60;1.00;;;;;;6120858;23;20029;-70
2023/10/04 05:18:17;;;;;;;12.77;4.10;;;16.60;1.00;;;;;;6119790;23;20049;-70
2023/10/04 05:20:45;;;;;;;14.70;4.57;;;16.80;1.00;;;;;;6118007;23;20463;-70
2023/10/04 05:23:11;;;;;;;18.40;4.60;;;16.40;1.00;;;;;;6122322;23;20108;-70
2023/10/04 05:25:37;;;;;;;17.48;5.07;;;16.80;1.00;;;;;;6119848;23;20018;-70
2023/10/04 05:28:09;;;;;;;14.95;5.20;;;16.60;1.00;;;;;;6118922;23;20014;-70
2023/10/04 05:30:37;;;;;;;18.90;5.75;;;16.80;1.00;;;;;;6120932;23;20022;-70
2023/10/04 05:33:03;;;;;;;15.35;5.32;;;16.60;1.00;;;;;;6119672;23;20667;-70
2023/10/04 05:35:29;;;;;;;15.88;4.93;;;16.20;1.00;;;;;;6096423;23;20025;-70
2023/10/04 05:37:55;;;;;;;13.55;4.40;;;16.20;1.00;;;;;;6094719;23;20028;-70
2023/10/04 05:40:27;;;;;;;16.30;4.93;;;17.00;1.00;;;;;;6090310;23;20021;-70
2023/10/04 05:42:54;;;;;;;17.52;5.05;;;16.70;1.00;;;;;;6065842;23;20033;-70
2023/10/04 05:45:20;;;;;;;12.10;4.88;;;16.70;1.00;;;;;;6118232;23;20041;-70
2023/10/04 05:47:48;;;;;;;14.27;4.43;;;16.70;1.00;;;;;;6121521;23;20452;-70
2023/10/04 05:50:17;;;;;;;12.77;3.70;;;17.00;1.00;;;;;;6072302;23;20141;-70
2023/10/04 05:52:43;;;;;;;10.57;3.58;;;16.50;1.00;;;;;;6118826;23;20018;-70
2023/10/04 05:55:09;;;;;;;13.48;3.53;;;16.70;1.00;;;;;;6096702;23;20014;-70
2023/10/04 05:57:35;;;;;;;12.88;4.20;;;16.30;1.00;;;;;;6122891;23;20010;-70
2023/10/04 06:02:55;;;;;;;14.02;3.95;;;16.40;1.00;;;;;;6114022;23;20116;-70
2023/10/04 06:05:25;;;;;;;14.98;4.13;;;16.40;1.00;;;;;;6090528;23;20355;-69
2023/10/04 06:07:51;;;;;;;13.55;3.60;;;16.70;1.00;;;;;;6091987;23;20021;-69
2023/10/04 06:10:18;;;;;;;10.63;3.70;;;16.00;1.00;;;;;;6091787;23;20025;-69
2023/10/04 06:12:47;;;;;;;15.70;4.05;;;16.60;1.00;;;;;;6091309;23;20064;-70
2023/10/04 06:15:16;;;;;;;12.23;3.55;;;16.80;1.00;;;;;;6067245;23;20018;-70
2023/10/04 06:17:46;;;;;;;11.77;4.38;;;16.20;1.00;;;;;;6090256;23;20145;-70
2023/10/04 06:20:32;;;;;;;10.68;3.55;;;16.70;1.00;;;;;;6089610;23;20018;-70
2023/10/04 06:23:00;;;;;;;12.82;3.85;;;16.70;1.00;;;;;;6090453;23;20010;-70
2023/10/04 06:25:29;;;;;;;12.93;4.13;;;16.90;1.00;;;;;;6091034;23;20013;-70
2023/10/04 06:27:56;;;;;;;13.60;4.05;;;17.10;1.00;;;;;;6115321;23;20013;-70
2023/10/04 06:30:27;;;;;;;11.13;3.58;;;16.70;1.00;;;;;;6090256;23;20025;-70
2023/10/04 06:32:55;;;;;;;10.32;3.28;;;17.00;1.00;;;;;;6100581;23;20018;-69
2023/10/04 06:35:24;;;;;;;14.43;3.55;;;16.80;1.00;;;;;;6115680;23;20026;-70
2023/10/04 06:37:54;;;;;;;10.55;3.45;;;16.70;1.00;;;;;;6090968;23;20018;-69
2023/10/04 06:40:20;;;;;;;10.57;3.35;;;17.00;1.00;;;;;;6114928;23;20018;-69
2023/10/04 06:42:52;;;;;;;15.27;3.60;;;16.40;1.00;;;;;;6091233;23;20121;-69
2023/10/04 06:45:20;;;;;;;10.07;3.55;;;16.70;1.00;;;;;;6114331;23;20363;-70
2023/10/04 06:47:49;;;;;;;12.02;3.60;;;17.10;1.00;;;;;;6117547;23;20010;-70
2023/10/04 06:50:20;;;;;;;9.30;3.47;;;16.80;1.00;;;;;;6114781;23;20024;-70
2023/10/04 06:52:47;;;;;;;9.18;3.30;;;16.80;1.00;;;;;;6118067;23;20022;-70
2023/10/04 06:55:14;;;;;;;9.40;3.45;;;17.00;1.00;;;;;;6115486;23;20017;-70
2023/10/04 06:57:40;;;;;;;11.32;3.20;;;17.00;1.00;;;;;;6115129;23;20519;-70
2023/10/04 07:00:13;;;;;;;14.95;4.75;;;16.50;1.00;;;;;;6113732;23;20045;-70
2023/10/04 07:02:40;;;;;;;13.27;3.70;;;16.80;1.00;;;;;;6114749;23;20659;-70
2023/10/04 07:05:08;;;;;;;10.48;3.40;;;16.90;1.00;;;;;;6115374;23;20018;-70
2023/10/04 07:07:34;;;;;;;9.45;3.13;;;16.80;1.00;;;;;;6115238;23;20395;-70
2023/10/04 07:10:01;;;;;;;10.30;3.33;;;;;;;;;;6114628;23;20092;-70
2023/10/04 07:12:27;;;;;;;10.60;3.35;;;17.10;1.00;;;;;;6113118;23;20096;-70
2023/10/04 07:14:53;;;;;;;9.95;3.30;;;16.90;1.00;;;;;;6089146;23;20022;-70
2023/10/04 07:17:19;;;;;;;7.68;3.10;;;16.30;1.00;;;;;;6114811;23;20102;-70
2023/10/04 07:19:45;;;;;;;9.93;3.47;;;16.70;1.00;;;;;;6115126;23;20018;-69
2023/10/04 07:22:10;;;;;;;10.40;3.20;;;16.80;1.00;;;;;;6115161;23;20082;-69
2023/10/04 07:24:37;;;;;;;11.50;3.65;;;17.00;1.00;;;;;;6115491;23;20042;-69
2023/10/04 07:27:03;;;;;;;11.65;3.92;;;17.20;1.00;;;;;;6113323;23;20014;-69
2023/10/04 07:29:29;;;;;;;13.38;3.00;;;17.00;1.00;;;;;;6115143;23;20018;-69
2023/10/04 07:31:56;;;;;;;10.98;3.38;;;17.10;1.00;;;;;;6090344;23;20340;-69
2023/10/04 07:34:27;;;;;;;8.15;2.92;;;16.30;1.00;;;;;;6091863;23;20036;-69
2023/10/04 07:36:53;;;;;;;9.00;3.33;;;17.30;1.00;;;;;;6114831;23;20348;-70
2023/10/04 07:39:21;;;;;;;8.93;3.10;;;16.60;1.00;;;;;;6116771;23;20113;-70
2023/10/04 07:41:47;;;;;;;9.27;3.53;;;;;;;;;;6117381;23;20646;-69
2023/10/04 07:44:13;;;;;;;11.88;3.70;;;16.80;1.00;;;;;;6066923;23;20014;-69
2023/10/04 07:46:39;;;;;;;9.98;2.97;;;17.00;1.00;;;;;;6087227;23;20093;-70
2023/10/04 07:49:05;;;;;;;9.35;3.38;;;17.00;1.00;;;;;;6087676;23;20013;-69
2023/10/04 07:51:31;;;;;;;10.15;3.28;;;17.30;1.00;;;;;;6091536;23;20397;-69
2023/10/04 07:53:56;;;;;;;10.13;3.85;;;17.00;1.00;;;;;;6092684;23;20017;-69
2023/10/04 07:56:22;;;;;;;10.93;3.92;;;16.70;1.00;;;;;;6119778;23;20041;-69
2023/10/04 07:58:48;;;;;;;11.77;3.83;;;16.90;1.00;;;;;;6091202;23;20021;-69
2023/10/04 08:01:14;;;;;;;9.27;3.33;;;16.50;1.00;;;;;;6067583;23;20025;-69
2023/10/04 08:03:40;;;;;;;12.23;3.65;;;16.90;1.00;;;;;;6091892;23;20460;-70
2023/10/04 08:06:12;;;;;;;13.55;3.88;;;16.60;1.00;;;;;;6092727;23;20024;-69
2023/10/04 08:08:45;;;;;;;9.95;3.40;;;17.40;1.00;;;;;;6118797;23;20098;-69
2023/10/04 08:11:11;;;;;;;10.40;3.90;;;17.20;1.00;;;;;;6093175;23;20117;-69
2023/10/04 08:13:38;;;;;;;11.65;3.95;;;17.10;1.00;;;;;;6092091;23;20021;-70
2023/10/04 08:16:04;;;;;;;9.43;3.22;;;17.10;1.00;;;;;;6118012;23;20065;-69
2023/10/04 08:18:30;;;;;;;17.63;4.38;;;16.90;1.00;;;;;;6066270;23;20080;-69
2023/10/04 08:20:57;;;;;;;11.27;3.85;;;17.60;1.00;;;;;;6092004;23;20021;-69
2023/10/04 08:23:22;;;;;;;12.10;3.97;;;16.70;1.00;;;;;;6093077;23;20081;-69
2023/10/04 08:25:51;;;;;;;12.82;3.90;;;17.20;1.00;;;;;;6093525;23;20432;-69
2023/10/04 08:28:16;;;;;;;12.18;4.05;;;16.80;1.00;;;;;;6118357;23;20018;-69
2023/10/04 08:30:42;;;;;;;8.98;3.28;;;17.40;1.00;;;;;;6092983;23;20024;-69
2023/10/04 08:33:08;;;;;;;7.57;3.30;;;17.00;1.00;;;;;;6118389;23;20376;-69
2023/10/04 08:35:36;;;;;;;11.25;3.70;;;16.50;1.00;;;;;;6067799;23;20021;-69
2023/10/04 08:38:05;;;;;;;15.07;4.25;;;16.90;1.00;;;;;;6092166;23;20117;-69
2023/10/04 08:40:36;;;;;;;11.48;3.90;;;16.80;1.00;;;;;;6090230;23;20022;-69
2023/10/04 08:43:04;;;;;;;12.75;3.90;;;16.70;1.00;;;;;;6066200;23;20009;-70
2023/10/04 08:45:29;;;;;;;7.45;3.00;;;16.80;1.00;;;;;;6068379;23;20068;-70
2023/10/04 08:47:57;;;;;;;12.45;3.78;;;16.50;1.00;;;;;;6118579;23;20440;-69
2023/10/04 08:50:35;;;;;;;8.75;3.33;;;17.10;1.00;;;;;;6087872;23;20022;-70
2023/10/04 08:53:10;;;;;;;12.45;4.00;;;16.70;1.00;;;;;;6092023;23;20022;-69
2023/10/04 08:55:42;;;;;;;12.82;4.07;;;16.50;1.00;;;;;;6114508;23;20025;-70
2023/10/04 08:58:13;;;;;;;12.70;3.90;;;16.90;1.00;;;;;;6087313;23;20064;-69
2023/10/04 09:00:43;;;;;;;12.50;3.88;;;17.20;1.00;;;;;;6067768;23;20021;-69
2023/10/04 09:03:12;;;;;;;9.23;3.85;;;18.20;1.00;;;;;;6090566;23;20018;-70
2023/10/04 09:05:39;;;;;;;9.25;3.35;;;17.80;1.00;;;;;;6092513;23;20016;-69
2023/10/04 09:08:05;;;;;;;8.00;3.72;;;17.00;1.00;;;;;;6090198;23;20010;-69
2023/10/04 09:10:34;;;;;;;9.80;3.38;;;17.20;1.00;;;;;;6091124;23;20025;-69
2023/10/04 09:13:03;;;;;;;9.45;4.07;;;17.00;1.00;;;;;;6090034;23;20029;-70
2023/10/04 09:15:30;;;;;;;11.25;4.43;;;16.90;1.00;;;;;;6091984;23;20014;-70
2023/10/04 09:17:57;;;;;;;10.57;3.63;;;16.90;1.00;;;;;;6116254;23;20037;-69
2023/10/04 09:20:31;;;;;;;9.55;3.67;;;17.00;1.00;;;;;;6088735;23;20118;-70
2023/10/04 09:23:00;;;;;;;;;;;16.90;1.00;;;;;;6092845;23;20014;-70
2023/10/04 09:25:40;;;;;;;13.05;4.10;;;16.60;1.00;;;;;;6065316;23;19913;-69
2023/10/04 09:28:12;;;;;;;10.73;4.22;;;17.00;1.00;;;;;;6118236;23;20006;-69
2023/10/04 09:30:37;;;;;;;10.52;3.55;;;17.00;1.00;;;;;;6117650;23;20092;-69
2023/10/04 09:33:28;;;;;;;9.32;3.88;;;17.00;1.00;;;;;;6117531;23;20381;-69
2023/10/04 09:35:54;;;;;;;13.75;4.13;;;17.60;1.00;;;;;;6116516;23;20062;-70
2023/10/04 09:38:21;;;;;;;11.82;4.45;;;16.90;1.00;;;;;;6091774;23;20061;-69
2023/10/04 09:40:59;;;;;;;11.20;4.75;;;17.20;1.00;;;;;;6118786;23;20096;-69
2023/10/04 09:43:44;;;;;;;11.50;4.07;;;16.60;1.00;;;;;;6091283;23;20053;-69
2023/10/04 09:46:11;;;;;;;10.48;4.47;;;17.10;1.00;;;;;;6092324;23;20022;-70
2023/10/04 09:48:37;;;;;;;11.18;4.07;;;16.90;1.00;;;;;;6091687;23;20818;-69
2023/10/04 09:51:05;;;;;;;10.38;4.18;;;16.90;1.00;;;;;;6116020;23;20048;-69
2023/10/04 09:53:32;;;;;;;10.43;4.60;;;17.20;1.00;;;;;;6089384;23;20026;-69
2023/10/04 09:56:02;;;;;;;11.98;4.00;;;17.30;1.00;;;;;;6087805;23;20028;-69
2023/10/04 09:58:33;;;;;;;11.15;3.90;;;17.00;1.00;;;;;;6065426;23;20093;-69
2023/10/04 10:01:11;;;;;;;13.77;4.72;;;16.70;1.00;;;;;;6091269;23;20071;-69
2023/10/04 10:03:59;;;;;;;10.77;4.07;;;17.00;1.00;;;;;;6117574;23;20022;-69
2023/10/04 10:06:28;;;;;;;9.55;4.32;;;18.40;1.00;;;;;;6088498;23;20029;-69
2023/10/04 10:09:05;;;;;;;10.50;3.85;;;18.10;1.00;;;;;;6090842;23;20029;-70
2023/10/04 10:11:32;;;;;;;11.73;4.80;;;16.50;1.00;;;;;;6116846;23;20022;-69
2023/10/04 10:13:58;;;;;;;14.82;4.30;;;16.80;1.00;;;;;;6090976;23;20018;-70
2023/10/04 10:16:26;;;;;;;12.90;4.38;;;17.20;1.00;;;;;;6090262;23;20018;-69
2023/10/04 10:18:52;;;;;;;11.50;4.05;;;16.90;1.00;;;;;;6090149;23;20347;-69
2023/10/04 10:21:18;;;;;;;12.23;4.32;;;17.10;1.00;;;;;;6088416;23;20021;-69
2023/10/04 10:23:57;;;;;;;14.45;4.90;;;16.90;1.00;;;;;;6066997;23;20052;-69
2023/10/04 10:26:23;;;;;;;13.10;4.45;;;17.40;1.00;;;;;;6090044;23;20014;-70
2023/10/04 10:28:56;;;;;;;12.32;4.40;;;;;;;;;;6090494;23;20085;-69
2023/10/04 10:31:22;;;;;;;11.80;4.05;;;17.70;1.00;;;;;;6085328;23;20049;-69
2023/10/04 10:33:49;;;;;;;12.40;4.53;;;17.10;1.00;;;;;;6087392;23;20037;-69
2023/10/04 10:36:22;;;;;;;12.00;4.30;;;17.10;1.00;;;;;;6116616;23;20121;-69
2023/10/04 10:38:50;;;;;;;10.98;4.15;;;17.70;1.00;;;;;;6090450;23;20022;-69
2023/10/04 10:41:31;;;;;;;10.77;4.35;;;17.30;1.00;;;;;;6117335;23;20100;-69
2023/10/04 10:44:17;;;;;;;14.20;4.45;;;17.20;1.00;;;;;;6113797;23;20037;-69
2023/10/04 10:47:07;;;;;;;11.43;4.38;;;17.00;1.00;;;;;;6090748;23;20025;-69
2023/10/04 10:49:42;;;;;;;11.57;4.65;;;17.00;1.00;;;;;;6112783;23;20021;-69
2023/10/04 10:52:21;;;;;;;15.68;4.47;;;17.60;1.00;;;;;;6115752;23;20069;-69
2023/10/04 10:54:47;;;;;;;11.27;4.50;;;17.30;1.00;;;;;;6092260;23;20077;-69
2023/10/04 10:57:13;;;;;;;12.32;3.97;;;17.20;1.00;;;;;;6117307;23;20164;-69
2023/10/04 10:59:42;;;;;;;13.45;4.53;;;16.80;1.00;;;;;;6115315;23;20033;-69
2023/10/04 11:02:09;;;;;;;10.45;3.88;;;16.90;1.00;;;;;;6115383;23;20044;-69
2023/10/04 11:04:34;;;;;;;11.32;3.75;;;17.30;1.00;;;;;;6089017;23;20013;-69
2023/10/04 11:07:00;;;;;;;8.70;3.70;;;16.90;1.00;;;;;;6115254;23;20014;-69
2023/10/04 11:09:30;;;;;;;9.02;3.70;;;17.40;1.00;;;;;;6115991;23;20044;-69
2023/10/04 11:11:56;;;;;;;9.13;4.05;;;17.40;1.00;;;;;;6113757;23;20018;-69
2023/10/04 11:14:22;;;;;;;10.60;4.20;;;17.10;1.00;;;;;;6114498;23;20057;-69
2023/10/04 11:16:48;;;;;;;10.18;4.32;;;17.00;1.00;;;;;;6114976;23;20021;-69
2023/10/04 11:19:15;;;;;;;10.18;3.83;;;17.10;1.00;;;;;;6116258;23;20022;-69
2023/10/04 11:21:43;;;;;;;13.90;4.07;;;16.80;1.00;;;;;;6090634;23;20471;-69
2023/10/04 11:24:10;;;;;;;10.18;4.10;;;17.40;1.00;;;;;;6116491;23;20018;-69
2023/10/04 11:26:39;;;;;;;11.35;3.75;;;17.70;1.00;;;;;;6117539;23;20030;-69
2023/10/04 11:29:05;;;;;;;9.38;3.35;;;17.10;1.00;;;;;;6117168;23;20006;-69
2023/10/04 11:31:32;;;;;;;11.30;3.85;;;17.20;1.00;;;;;;6117243;23;20089;-69
2023/10/04 11:34:00;;;;;;;9.43;3.20;;;16.80;1.00;;;;;;6117100;23;20014;-69
2023/10/04 11:36:25;;;;;;;7.75;2.72;;;17.20;1.00;;;;;;6116240;23;20086;-69
2023/10/04 11:38:52;;;;;;;9.63;3.63;;;16.80;1.00;;;;;;6119659;23;20041;-69
2023/10/04 11:41:19;;;;;;;13.20;4.32;;;17.30;1.00;;;;;;6114939;23;20014;-69
2023/10/04 11:43:46;;;;;;;10.15;3.17;;;17.20;1.00;;;;;;6118375;23;20083;-69
2023/10/04 11:46:12;;;;;;;7.50;2.92;;;17.10;1.00;;;;;;6113752;23;20013;-69
2023/10/04 11:48:38;;;;;;;8.05;3.00;;;16.90;1.00;;;;;;6114209;23;20068;-69
2023/10/04 11:51:06;;;;;;;9.75;3.40;;;17.40;1.00;;;;;;6116438;23;20101;-69
2023/10/04 11:53:44;;;;;;;8.88;2.70;;;16.90;1.00;;;;;;6116742;23;20025;-69
2023/10/04 11:56:10;;;;;;;7.93;3.00;;;16.90;99.90;;;;;;6117837;23;20021;-69
2023/10/04 11:58:47;;;;;;;9.73;3.08;;;16.50;1.00;;;;;;6115346;23;20050;-69
2023/10/04 12:01:19;;;;;;;9.13;3.67;;;;;;;;;;6117949;23;20073;-69
2023/10/04 12:03:58;;;;;;;9.80;2.88;;;16.90;99.90;;;;;;6118790;23;20093;-69
2023/10/04 12:06:33;;;;;;;8.85;2.70;;;17.50;1.00;;;;;;6114212;23;20020;-69
2023/10/04 12:08:58;;;;;;;9.15;2.70;;;17.10;1.00;;;;;;6118738;23;20010;-69
2023/10/04 12:11:25;;;;;;;6.22;2.40;;;16.80;1.00;;;;;;6090271;23;20073;-69
2023/10/04 12:13:52;;;;;;;7.80;2.67;;;17.70;1.00;;;;;;6113494;23;20025;-67
2023/10/04 12:16:18;;;;;;;11.15;2.97;;;17.50;1.00;;;;;;6116904;23;20029;-68
2023/10/04 12:18:45;;;;;;;9.02;2.72;;;17.30;1.00;;;;;;6114529;23;20363;-67
2023/10/04 12:21:12;;;;;;;12.30;3.90;;;17.10;1.00;;;;;;6090965;23;20627;-68
2023/10/04 12:23:38;;;;;;;9.82;2.60;;;17.20;1.00;;;;;;6113082;23;20018;-68
2023/10/04 12:26:04;;;;;;;8.57;3.25;;;17.10;1.00;;;;;;6115948;23;20025;-68
2023/10/04 12:28:30;;;;;;;9.70;3.58;;;18.50;1.00;;;;;;6113663;23;20010;-68
2023/10/04 12:31:07;;;;;;;6.88;2.60;;;17.70;1.00;;;;;;6118332;23;20085;-68
2023/10/04 12:33:35;;;;;;;7.57;2.70;;;17.70;1.00;;;;;;6116588;23;20013;-68
2023/10/04 12:36:02;;;;;;;7.85;2.38;;;17.90;1.00;;;;;;6114961;23;20024;-69
2023/10/04 12:38:27;;;;;;;7.25;2.30;;;17.30;1.00;;;;;;6117203;23;20478;-68
2023/10/04 12:40:53;;;;;;;6.40;2.50;;;17.70;1.00;;;;;;6113653;23;20017;-68
2023/10/04 12:43:18;;;;;;;9.70;2.50;;;17.50;1.00;;;;;;6117710;23;20010;-68
2023/10/04 12:45:44;;;;;;;10.43;2.47;;;17.50;1.00;;;;;;6115575;23;20074;-68
2023/10/04 12:48:16;;;;;;;9.93;2.50;;;16.80;1.00;;;;;;6118932;23;20596;-68
2023/10/04 12:50:49;;;;;;;8.98;2.30;;;;;;;;;;6092560;23;20096;-69
2023/10/04 12:53:16;;;;;;;8.52;2.45;;;17.00;1.00;;;;;;6118817;23;20028;-68
2023/10/04 12:55:42;;;;;;;8.95;2.92;;;17.10;1.00;;;;;;6116231;23;20554;-68
2023/10/04 12:58:08;;;;;;;8.75;2.63;;;17.80;1.00;;;;;;6115278;23;20022;-70
2023/10/04 13:00:34;;;;;;;8.82;2.55;;;17.10;1.00;;;;;;6117591;23;20486;-69
2023/10/04 13:03:03;;;;;;;8.25;2.33;;;17.90;1.00;;;;;;6119289;23;20016;-70